Lakefront, LA

12:55 PM CDT on July 30, 2015 (GMT -0500)
Lakefront | | Change Station
CLOSE
Current Station
Airport
Location: New Orleans Lakefront,
Elevation: 10 ft
Nearby Weather Stations
Active Advisory: Heat Advisory Active Notice: Record Report

Elev 10 ft 30.05 °N, 90.03 °W | Updated 1 hour ago

Partly Cloudy
Partly Cloudy
90 °F
Feels Like 100 °F
N
10
Wind Variable Wind from North

Today
High -- | Low -- °F
--% Chance of Precip.
Yesterday
High -- | Low -- °F
Precip. -- in
6:17 AM 7:55 PM
Waxing Gibbous, 99% visible
Pressure 29.99 in
Visibility 10.0 miles
Clouds Few 6500 ft
Heat Index 100 °F
Dew Point 75 °F
Humidity 61%
Rainfall 0.00 in
Snow Depth Not available.
UV 12 out of 12
Pollen 1.80 out of 12
Air Quality Not available.
Flu Activity Not available.
METAR KNEW 301653Z 36009KT 10SM FEW065 32/24 A3001 RMK AO2 SLP156 T03220239

More Conditions Fewer Conditions

Pressure 29.99 in
Visibility 10.0 miles
Clouds Few 6500 ft
Heat Index 100 °F
Dew Point 75 °F
Humidity 61%
Rainfall 0.00 in
Snow Depth Not available.
UV 12 out of 12
Pollen 1.80 out of 12
Air Quality Not available.
Flu Activity Not available.
METAR KNEW 301653Z 36009KT 10SM FEW065 32/24 A3001 RMK AO2 SLP156 T03220239

More Conditions Fewer Conditions

10-Day Weather Forecast

×

Almanac

Astronomy

Jul. 30, 2015 Rise Set
Actual Time
Civil Twilight
Nautical Twilight
Astronomical Twilight
Moon
Length of Visible Light
Length of Day
Tomorrow will be .
, % of the Moon is Illuminated

Today's Extremes

State Highs State Lows

Community

WunderPhotos

Upload Photos

1,842,428 photos uploaded!

WunderBlogs® & News

Nearby

Air Quality

  Air Quality AQ Index Pollutant
Not available.

Snow Depth

Station Depth Elevation

Earthquake Activity

City Distance Mag. Time & Date
Minimum magnitude displayed is 2.5.

Coastal Water Temperatures

Place Temperature

Stations

Nearby Weather Stations

Station Location Temp. Windchill Dew Point Humidity Wind Precip. Elev Updated Type
                   
Heat Advisory
Statement as of 12:00 PM CDT on July 30, 2015

... Heat advisory in effect until 6 PM CDT this evening...

The National Weather Service in New Orleans has issued a heat
advisory... which is in effect until 6 PM CDT this evening.

* Temperature... afternoon heat index will range from 105 to 110.

* Duration... 3 to 5 hours.

* Impacts... take extra precautions if you work or spend time
outside. When possible... reschedule strenuous activities to
early morning or evening. Know the signs and symptoms of heat
exhaustion and heat stroke. Wear light weight and loose
fitting clothing when possible and drink plenty of water.

Precautionary/preparedness actions...

A heat advisory means that a period of hot temperatures is
expected. The combination of hot temperatures and high humidity
will combine to create a situation in which heat illnesses are
possible. Drink plenty of fluids... stay in an air-conditioned
room... stay out of the sun... and check up on relatives and
neighbors.